createdAt,value
2018-10-05T00:00:43.509Z,24.00
2018-10-05T00:04:47.651Z,22.43
2018-10-05T00:08:51.738Z,22.90
2018-10-05T00:12:55.931Z,18.10
2018-10-05T00:17:00.083Z,16.67
2018-10-05T00:21:04.155Z,20.97
2018-10-05T00:25:08.297Z,18.83
2018-10-05T00:29:12.992Z,18.93
2018-10-05T00:33:17.211Z,19.40
2018-10-05T00:37:21.317Z,18.93
2018-10-05T00:41:25.703Z,18.33
2018-10-05T00:45:29.899Z,19.60
2018-10-05T00:49:34.059Z,18.73
2018-10-05T00:53:38.128Z,21.70
2018-10-05T00:57:43.342Z,21.63
2018-10-05T01:01:47.893Z,20.53
2018-10-05T01:05:51.915Z,22.83
2018-10-05T01:09:55.976Z,20.27
2018-10-05T01:14:00.180Z,20.90
2018-10-05T01:18:04.335Z,22.27
2018-10-05T01:22:08.664Z,19.30
2018-10-05T01:26:12.947Z,19.67
2018-10-05T01:30:17.635Z,19.30
2018-10-05T01:34:21.698Z,20.67
2018-10-05T01:38:26.012Z,20.67
2018-10-05T01:42:30.163Z,19.27
2018-10-05T01:46:34.460Z,20.60
2018-10-05T01:50:38.510Z,19.87
2018-10-05T01:54:43.775Z,22.57
2018-10-05T01:58:47.977Z,22.93
2018-10-05T02:02:52.279Z,19.60
2018-10-05T02:06:56.484Z,19.10
2018-10-05T02:11:00.622Z,20.23
2018-10-05T02:15:05.143Z,21.10
2018-10-05T02:19:09.268Z,19.20
2018-10-05T02:23:14.528Z,18.57
2018-10-05T02:27:18.992Z,20.00
2018-10-05T02:31:23.093Z,19.10
2018-10-05T02:35:27.488Z,24.10
2018-10-05T02:39:32.296Z,20.73
2018-10-05T02:43:36.379Z,20.23
2018-10-05T02:47:40.796Z,17.97
2018-10-05T02:51:45.199Z,22.73
2018-10-05T02:55:49.515Z,17.97
2018-10-05T02:59:53.671Z,20.03
2018-10-05T03:03:57.756Z,19.70
2018-10-05T03:08:02.211Z,17.73
2018-10-05T03:12:06.459Z,18.60
2018-10-05T03:16:12.707Z,17.43
2018-10-05T03:20:17.103Z,16.77
2018-10-05T03:24:21.443Z,19.83
2018-10-05T03:28:25.586Z,20.53
2018-10-05T03:32:29.922Z,19.90
2018-10-05T03:36:34.213Z,22.83
2018-10-05T03:40:38.383Z,20.27
2018-10-05T03:44:44.683Z,19.00
2018-10-05T03:48:48.921Z,18.77
2018-10-05T03:52:59.065Z,18.90
2018-10-05T03:57:05.416Z,23.03
2018-10-05T04:01:09.888Z,19.60
2018-10-05T04:05:14.564Z,18.77
2018-10-05T04:09:19.798Z,19.33
2018-10-05T04:13:28.171Z,20.37
2018-10-05T04:17:32.552Z,24.30
2018-10-05T04:21:36.682Z,22.47
2018-10-05T04:25:40.833Z,20.17
2018-10-05T04:29:45.175Z,24.97
2018-10-05T04:33:54.719Z,22.53
2018-10-05T04:37:59.092Z,21.33
2018-10-05T04:42:03.251Z,21.23
2018-10-05T04:46:07.600Z,22.30
2018-10-05T04:50:11.989Z,21.67
2018-10-05T04:54:16.351Z,20.27
2018-10-05T04:58:20.657Z,26.70
2018-10-05T05:02:25.090Z,35.43
2018-10-05T05:06:29.823Z,23.10
2018-10-05T05:10:37.065Z,20.97
2018-10-05T05:14:43.213Z,22.80
2018-10-05T05:18:47.420Z,21.43
2018-10-05T05:22:53.174Z,22.97
2018-10-05T05:26:57.854Z,30.00
2018-10-05T05:31:02.143Z,23.37
2018-10-05T05:35:06.432Z,24.80
2018-10-05T05:39:11.644Z,31.87
2018-10-05T05:43:16.002Z,27.70
2018-10-05T05:47:20.937Z,30.27
2018-10-05T05:51:25.980Z,22.13
2018-10-05T05:55:30.083Z,24.60
2018-10-05T05:59:34.327Z,27.40
2018-10-05T06:03:39.576Z,26.33
2018-10-05T06:07:43.806Z,30.83
2018-10-05T06:11:48.174Z,25.77
2018-10-05T06:15:52.425Z,33.30
2018-10-05T06:19:56.594Z,36.10
2018-10-05T06:24:00.863Z,26.90
2018-10-05T06:28:04.956Z,29.53
2018-10-05T06:32:09.159Z,25.20
2018-10-05T06:36:13.384Z,23.87
2018-10-05T06:40:18.180Z,24.30
2018-10-05T06:44:22.864Z,22.03
2018-10-05T06:48:28.286Z,22.27
2018-10-05T06:52:32.426Z,18.70
2018-10-05T07:01:44.032Z,23.37
2018-10-05T07:05:50.154Z,22.03
2018-10-05T07:09:57.200Z,21.33
2018-10-05T07:14:01.563Z,24.93
2018-10-05T07:18:05.973Z,23.97
2018-10-05T07:22:10.314Z,21.53
2018-10-05T07:26:17.339Z,20.73
2018-10-05T07:30:22.069Z,26.30
2018-10-05T07:34:26.341Z,20.37
2018-10-05T07:38:30.729Z,17.30
2018-10-05T07:42:34.928Z,19.53
2018-10-05T07:46:39.172Z,18.70
2018-10-05T07:50:43.612Z,18.27
2018-10-05T07:54:47.701Z,18.97
2018-10-05T07:58:53.207Z,16.90
2018-10-05T08:02:57.527Z,17.47
2018-10-05T08:07:02.640Z,15.37
2018-10-05T08:11:07.400Z,18.87
2018-10-05T08:15:12.104Z,18.77
2018-10-05T08:19:16.454Z,19.50
2018-10-05T08:23:21.981Z,17.17
2018-10-05T08:27:26.777Z,14.37
2018-10-05T08:31:30.919Z,18.67
2018-10-05T08:35:47.036Z,15.10
2018-10-05T08:39:53.143Z,14.77
2018-10-05T08:43:57.507Z,15.07
2018-10-05T08:48:11.676Z,14.17
2018-10-05T08:52:15.895Z,17.13
2018-10-05T08:56:20.257Z,12.90
2018-10-05T09:00:24.740Z,13.27
2018-10-05T09:04:29.432Z,14.40
2018-10-05T09:08:33.851Z,16.10
2018-10-05T09:12:40.844Z,15.90
2018-10-05T09:16:44.997Z,13.90
2018-10-05T09:20:50.108Z,13.37
2018-10-05T09:24:55.131Z,14.43
2018-10-05T09:29:00.011Z,12.97
2018-10-05T09:33:04.169Z,16.07
2018-10-05T09:37:08.449Z,12.67
2018-10-05T09:41:12.727Z,14.13
2018-10-05T09:45:17.025Z,12.30
2018-10-05T09:49:23.583Z,14.87
2018-10-05T09:53:28.166Z,14.90
2018-10-05T09:57:35.552Z,18.93
2018-10-05T10:01:45.195Z,12.80
2018-10-05T10:05:50.630Z,17.17
2018-10-05T10:09:55.121Z,15.33
2018-10-05T10:14:01.141Z,17.40
2018-10-05T10:18:05.680Z,15.40
2018-10-05T10:22:09.808Z,13.87
2018-10-05T10:26:13.997Z,11.60
2018-10-05T10:30:18.090Z,13.43
2018-10-05T10:34:22.449Z,19.40
2018-10-05T10:38:27.104Z,14.50
2018-10-05T10:42:31.327Z,14.73
2018-10-05T10:46:35.501Z,13.80
2018-10-05T10:50:40.333Z,13.83
2018-10-05T10:54:44.642Z,18.70
2018-10-05T10:58:49.745Z,16.40
2018-10-05T11:02:53.990Z,14.17
2018-10-05T11:06:58.395Z,16.30
2018-10-05T11:11:02.755Z,14.80
2018-10-05T11:15:07.064Z,14.23
2018-10-05T11:19:11.267Z,17.83
2018-10-05T11:23:15.838Z,17.50
2018-10-05T11:27:21.090Z,14.27
2018-10-05T11:31:25.624Z,14.40
2018-10-05T11:35:29.764Z,13.50
2018-10-05T11:39:34.013Z,14.83
2018-10-05T11:43:38.128Z,15.87
2018-10-05T11:47:42.613Z,17.53
2018-10-05T11:51:46.761Z,15.17
2018-10-05T11:55:51.425Z,17.57
2018-10-05T11:59:55.896Z,15.00
2018-10-05T12:04:08.985Z,17.17
2018-10-05T12:08:13.144Z,17.73
2018-10-05T12:12:17.303Z,15.97
2018-10-05T12:16:21.488Z,12.83
2018-10-05T12:20:25.742Z,14.00
2018-10-05T12:24:31.114Z,11.53
2018-10-05T12:28:35.353Z,15.53
2018-10-05T12:32:39.504Z,11.63
2018-10-05T12:36:43.655Z,15.40
2018-10-05T12:40:47.840Z,11.17
2018-10-05T12:44:52.613Z,13.70
2018-10-05T12:48:57.124Z,13.67
2018-10-05T12:53:01.229Z,16.70
2018-10-05T12:57:06.803Z,14.93
2018-10-05T13:01:12.720Z,13.03
2018-10-05T13:05:17.040Z,12.20
2018-10-05T13:09:22.347Z,15.47
2018-10-05T13:13:28.351Z,13.43
2018-10-05T13:17:32.828Z,13.57
2018-10-05T13:21:37.032Z,11.03
2018-10-05T13:25:41.363Z,12.97
2018-10-05T13:29:46.580Z,14.23
2018-10-05T13:33:51.779Z,13.07
2018-10-05T13:37:56.641Z,12.03
2018-10-05T13:42:00.937Z,11.63
2018-10-05T13:46:05.273Z,10.00
2018-10-05T13:50:11.224Z,13.33
2018-10-05T13:54:15.648Z,11.93
2018-10-05T13:58:20.967Z,13.77
2018-10-05T14:02:25.295Z,12.83
2018-10-05T14:06:29.492Z,13.00
2018-10-05T14:10:40.094Z,14.80
2018-10-05T14:14:44.373Z,14.03
2018-10-05T14:18:51.367Z,13.20
2018-10-05T14:22:56.152Z,10.93
2018-10-05T14:27:00.265Z,13.80
2018-10-05T14:31:04.560Z,13.53
2018-10-05T14:35:08.759Z,12.53
2018-10-05T14:39:13.547Z,11.83
2018-10-05T14:43:17.957Z,15.50
2018-10-05T14:47:30.102Z,13.30
2018-10-05T14:51:36.580Z,15.17
2018-10-05T14:55:40.768Z,14.13
2018-10-05T14:59:45.269Z,10.83
2018-10-05T15:03:51.860Z,15.77
2018-10-05T15:07:56.523Z,11.27
2018-10-05T15:12:00.784Z,11.53
2018-10-05T15:16:05.229Z,10.90
2018-10-05T15:20:09.473Z,10.80
2018-10-05T15:24:13.784Z,12.00
2018-10-05T15:28:18.012Z,11.43
2018-10-05T15:32:22.789Z,13.50
2018-10-05T15:36:26.960Z,18.17
2018-10-05T15:40:31.079Z,16.43
2018-10-05T15:44:35.201Z,17.17
2018-10-05T15:48:39.412Z,17.80
2018-10-05T15:52:43.664Z,17.27
2018-10-05T15:56:48.081Z,15.57
2018-10-05T16:00:53.487Z,16.97
2018-10-05T16:04:57.667Z,15.50
2018-10-05T16:09:01.894Z,15.73
2018-10-05T16:13:06.657Z,18.10
2018-10-05T16:17:10.938Z,16.23
2018-10-05T16:21:15.213Z,17.53
2018-10-05T16:25:19.489Z,13.90
2018-10-05T16:29:23.850Z,12.67
2018-10-05T16:33:28.359Z,11.43
2018-10-05T16:37:32.759Z,12.50
2018-10-05T16:41:36.908Z,13.10
2018-10-05T16:45:41.283Z,9.60
2018-10-05T16:49:45.458Z,13.20
2018-10-05T16:53:49.851Z,13.57
2018-10-05T16:57:54.357Z,11.60
2018-10-05T17:01:58.569Z,13.27
2018-10-05T17:06:02.701Z,14.87
2018-10-05T17:10:07.166Z,14.40
2018-10-05T17:14:11.296Z,14.30
2018-10-05T17:18:15.520Z,12.63
2018-10-05T17:22:20.443Z,12.53
2018-10-05T17:26:24.697Z,12.80
2018-10-05T17:30:28.892Z,12.13
2018-10-05T17:34:33.171Z,16.67
2018-10-05T17:38:37.531Z,15.43
2018-10-05T17:42:41.943Z,15.63
2018-10-05T17:46:47.623Z,15.37
2018-10-05T17:50:54.726Z,13.37
2018-10-05T17:54:59.480Z,15.03
2018-10-05T17:59:03.775Z,17.77
2018-10-05T18:03:08.190Z,13.77
2018-10-05T18:07:12.403Z,12.20
2018-10-05T18:11:16.757Z,16.60
2018-10-05T18:15:22.107Z,17.13
2018-10-05T18:19:26.244Z,16.33
2018-10-05T18:23:30.509Z,14.80
2018-10-05T18:27:35.046Z,15.87
2018-10-05T18:31:39.295Z,15.77
2018-10-05T18:35:43.642Z,15.17
2018-10-05T18:39:47.893Z,15.00
2018-10-05T18:43:52.920Z,16.47
2018-10-05T18:47:58.572Z,16.47
2018-10-05T18:52:02.936Z,19.97
2018-10-05T18:56:18.682Z,17.40
2018-10-05T19:00:23.547Z,17.93
2018-10-05T19:04:27.804Z,19.10
2018-10-05T19:08:31.956Z,17.77
2018-10-05T19:12:36.244Z,17.17
2018-10-05T19:16:40.417Z,17.93
2018-10-05T19:20:44.656Z,18.47
2018-10-05T19:24:50.026Z,19.00
2018-10-05T19:28:55.302Z,26.67
2018-10-05T19:32:59.952Z,22.03
2018-10-05T19:37:04.335Z,20.07
2018-10-05T19:41:08.586Z,22.77
2018-10-05T19:45:12.868Z,26.23
2018-10-05T19:49:17.303Z,23.47
2018-10-05T19:53:21.805Z,19.77
2018-10-05T19:57:26.704Z,16.87
2018-10-05T20:01:30.974Z,20.13
2018-10-05T20:05:35.160Z,23.33
2018-10-05T20:09:39.491Z,20.47
2018-10-05T20:13:43.980Z,24.40
2018-10-05T20:17:48.387Z,21.40
2018-10-05T20:21:52.673Z,21.63
2018-10-05T20:25:57.084Z,22.50
2018-10-05T20:30:01.321Z,20.93
2018-10-05T20:34:05.593Z,22.70
2018-10-05T20:38:09.789Z,25.53
2018-10-05T20:42:13.927Z,21.07
2018-10-05T20:47:21.304Z,26.33
2018-10-05T20:51:25.571Z,23.63
2018-10-05T20:55:29.956Z,25.13
2018-10-05T20:59:34.213Z,28.90
2018-10-05T21:03:38.448Z,23.63
2018-10-05T21:07:42.573Z,18.97
2018-10-05T21:11:47.017Z,25.93
2018-10-05T21:15:52.535Z,25.43
2018-10-05T21:19:56.952Z,20.37
2018-10-05T21:24:01.173Z,22.73
2018-10-05T21:28:05.937Z,21.50
2018-10-05T21:32:10.232Z,22.90
2018-10-05T21:36:14.420Z,18.57
2018-10-05T21:40:19.900Z,16.93
2018-10-05T21:44:24.554Z,19.33
2018-10-05T21:48:28.854Z,17.30
2018-10-05T21:52:33.412Z,19.03
2018-10-05T21:56:37.566Z,17.60
2018-10-05T22:00:42.784Z,19.73
2018-10-05T22:04:46.942Z,16.30
2018-10-05T22:08:52.353Z,19.93
2018-10-05T22:12:56.974Z,19.30
2018-10-05T22:17:01.220Z,21.43
2018-10-05T22:21:05.614Z,19.63
2018-10-05T22:25:09.952Z,17.80
2018-10-05T22:29:14.100Z,19.03
2018-10-05T22:33:20.105Z,23.73
2018-10-05T22:37:24.382Z,19.40
2018-10-05T22:41:30.470Z,19.97
2018-10-05T22:45:34.822Z,22.07
2018-10-05T22:49:39.035Z,19.47
2018-10-05T22:53:43.379Z,19.63
2018-10-05T22:57:47.722Z,17.87
2018-10-05T23:01:52.082Z,20.53
2018-10-05T23:05:56.628Z,21.10
2018-10-05T23:10:00.825Z,19.67
2018-10-05T23:14:05.028Z,21.00
2018-10-05T23:18:09.316Z,18.27
2018-10-05T23:22:13.621Z,22.47
2018-10-05T23:26:17.823Z,19.30
2018-10-05T23:30:22.512Z,20.30
2018-10-05T23:34:26.981Z,24.23
2018-10-05T23:38:31.386Z,21.67
2018-10-05T23:42:35.719Z,22.97
2018-10-05T23:46:40.454Z,19.83
2018-10-05T23:50:44.677Z,21.93
2018-10-05T23:54:49.105Z,18.53
2018-10-05T23:58:53.346Z,18.50
